Time,TemperatureF,DewpointF,PressureIn,WindDirection,WindDirectionDegrees,WindSpeedMPH,WindSpeedGustMPH,Humidity,HourlyPrecipIn,Conditions,Clouds,dailyrainin,SoftwareType,DateUTC
2013-04-25 00:03:00,35.0,32.0,-100.00,NNW,333,0.0,10.0,93,0.00,,,-99.99,,2013-04-25 04:03:00,
2013-04-25 00:13:00,35.0,32.0,-100.00,North,354,0.0,10.0,93,0.00,,,-99.99,,2013-04-25 04:13:00,
2013-04-25 00:23:00,36.0,34.0,-100.00,NNW,340,0.0,10.0,93,0.00,,,-99.99,,2013-04-25 04:23:00,
2013-04-25 00:33:00,36.0,34.0,-100.00,NNE,21,0.0,10.0,94,0.00,,,-99.99,,2013-04-25 04:33:00,
2013-04-25 00:43:00,37.0,34.0,-100.00,NNW,345,0.0,10.0,93,7.36,,,-99.99,,2013-04-25 04:43:00,
2013-04-25 00:52:00,37.0,34.0,-100.00,North,5,0.0,10.0,93,0.00,,,-99.99,,2013-04-25 04:52:00,
2013-04-25 01:03:00,37.0,34.0,-100.00,NNE,21,0.0,10.0,93,0.00,,,-99.99,,2013-04-25 05:03:00,
2013-04-25 01:12:00,37.0,34.0,-100.00,NE,38,0.0,10.0,93,0.00,,,-99.99,,2013-04-25 05:12:00,
2013-04-25 01:22:00,37.0,34.0,-100.00,North,4,0.0,10.0,93,0.00,,,-99.99,,2013-04-25 05:22:00,
2013-04-25 01:32:00,35.0,32.0,-100.00,North,0,0.0,10.0,93,0.00,,,-99.99,,2013-04-25 05:32:00,
2013-04-25 01:42:00,36.0,34.0,-100.00,North,1,0.0,10.0,93,0.00,,,-99.99,,2013-04-25 05:42:00,
2013-04-25 01:51:00,36.0,34.0,-100.00,North,0,0.0,10.0,94,0.00,,,-99.99,,2013-04-25 05:51:00,
2013-04-25 02:02:00,36.0,34.0,-100.00,North,0,0.0,10.0,93,0.00,,,-99.99,,2013-04-25 06:02:00,
2013-04-25 02:12:00,36.0,34.0,-100.00,NNW,333,0.0,10.0,94,0.00,,,-99.99,,2013-04-25 06:12:00,
2013-04-25 02:22:00,35.0,32.0,-100.00,NNW,347,0.0,10.0,94,0.00,,,-99.99,,2013-04-25 06:22:00,
2013-04-25 02:32:00,35.0,32.0,-100.00,NW,319,0.0,10.0,94,0.00,,,-99.99,,2013-04-25 06:32:00,
2013-04-25 02:42:00,34.0,32.0,-100.00,NNW,338,0.0,10.0,94,0.00,,,-99.99,,2013-04-25 06:42:00,
2013-04-25 02:52:00,34.0,32.0,-100.00,NNW,343,0.0,10.0,94,0.00,,,-99.99,,2013-04-25 06:52:00,
2013-04-25 03:02:00,35.0,34.0,-100.00,NNE,16,0.0,10.0,95,0.00,,,-99.99,,2013-04-25 07:02:00,
2013-04-25 03:12:00,34.0,32.0,-100.00,ENE,62,0.0,10.0,94,0.00,,,-99.99,,2013-04-25 07:12:00,
2013-04-25 03:22:00,34.0,32.0,-100.00,North,360,0.0,10.0,94,0.00,,,-99.99,,2013-04-25 07:22:00,
2013-04-25 03:32:00,34.0,32.0,-100.00,NNE,29,0.0,10.0,94,0.00,,,-99.99,,2013-04-25 07:32:00,
2013-04-25 03:42:00,34.0,32.0,-100.00,North,351,0.0,10.0,95,0.00,,,-99.99,,2013-04-25 07:42:00,
2013-04-25 03:52:00,34.0,32.0,-100.00,North,360,0.0,10.0,95,0.00,,,-99.99,,2013-04-25 07:52:00,
2013-04-25 04:02:00,34.0,32.0,-100.00,North,0,0.0,10.0,95,0.00,,,-99.99,,2013-04-25 08:02:00,
2013-04-25 04:11:00,35.0,32.0,-100.00,NNW,344,0.0,10.0,95,0.00,,,-99.99,,2013-04-25 08:11:00,
2013-04-25 04:21:00,35.0,34.0,-100.00,NNW,347,0.0,10.0,95,0.00,,,-99.99,,2013-04-25 08:21:00,
2013-04-25 04:32:00,33.0,32.0,-100.00,NNW,337,0.0,10.0,94,0.00,,,-99.99,,2013-04-25 08:32:00,
2013-04-25 04:42:00,33.0,32.0,-100.00,ENE,66,0.0,0.0,95,0.00,,,-99.99,,2013-04-25 08:42:00,
2013-04-25 04:51:00,32.0,32.0,-100.00,North,358,0.0,0.0,95,0.00,,,-99.99,,2013-04-25 08:51:00,
2013-04-25 05:01:00,32.0,32.0,-100.00,NNW,327,0.0,0.0,95,0.00,,,-99.99,,2013-04-25 09:01:00,
2013-04-25 05:10:00,32.0,32.0,-100.00,NW,309,0.0,0.0,95,0.00,,,-99.99,,2013-04-25 09:10:00,
2013-04-25 05:11:00,32.0,32.0,-100.00,North,352,0.0,0.0,95,0.00,,,-99.99,,2013-04-25 09:11:00,
2013-04-25 05:21:00,33.0,32.0,-100.00,NW,312,0.0,0.0,95,0.00,,,-99.99,,2013-04-25 09:21:00,
2013-04-25 05:33:00,32.0,32.0,-100.00,NW,309,0.0,0.0,95,0.00,,,-99.99,,2013-04-25 09:33:00,
2013-04-25 05:42:00,32.0,32.0,-100.00,NW,309,0.0,0.0,95,0.00,,,-99.99,,2013-04-25 09:42:00,
2013-04-25 05:52:00,32.0,32.0,-100.00,NW,309,0.0,0.0,95,0.00,,,-99.99,,2013-04-25 09:52:00,
2013-04-25 06:02:00,32.0,32.0,-100.00,NW,309,0.0,0.0,95,0.00,,,-99.99,,2013-04-25 10:02:00,
2013-04-25 08:01:00,33.0,32.0,-100.00,North,358,0.0,0.0,95,0.00,,,-99.99,,2013-04-25 12:01:00,
2013-04-25 08:12:00,34.0,32.0,-100.00,NNW,334,0.0,0.0,95,0.00,,,-99.99,,2013-04-25 12:12:00,
2013-04-25 08:22:00,34.0,32.0,-100.00,NNW,327,0.0,0.0,94,0.00,,,-99.99,,2013-04-25 12:22:00,
2013-04-25 08:32:00,34.0,32.0,-100.00,NNW,327,0.0,0.0,94,0.00,,,-99.99,,2013-04-25 12:32:00,
2013-04-25 08:42:00,34.0,32.0,-100.00,NNW,327,0.0,0.0,94,0.00,,,-99.99,,2013-04-25 12:42:00,
2013-04-25 08:51:00,34.0,32.0,-100.00,NNW,327,0.0,0.0,94,0.00,,,-99.99,,2013-04-25 12:51:00,
2013-04-25 10:52:00,47.0,36.0,-100.00,NNE,25,0.0,2.0,67,0.00,,,-99.99,,2013-04-25 14:52:00,
2013-04-25 11:02:00,49.0,36.0,-100.00,NNE,28,0.0,2.0,63,0.00,,,-99.99,,2013-04-25 15:02:00,
2013-04-25 11:11:00,50.0,34.0,-100.00,NNE,31,0.0,2.0,55,0.00,,,-99.99,,2013-04-25 15:11:00,
2013-04-25 11:21:00,50.0,32.0,-100.00,North,7,1.0,2.0,53,0.00,,,-99.99,,2013-04-25 15:21:00,
2013-04-25 11:33:00,48.0,32.0,-100.00,NNW,344,1.0,2.0,51,0.00,,,-99.99,,2013-04-25 15:33:00,
2013-04-25 11:42:00,50.0,32.0,-100.00,SE,141,1.0,2.0,51,0.00,,,-99.99,,2013-04-25 15:42:00,
2013-04-25 11:53:00,51.0,32.0,-100.00,NE,50,2.0,2.0,47,0.00,,,-99.99,,2013-04-25 15:53:00,
2013-04-25 12:02:00,51.0,32.0,-100.00,WSW,249,1.0,2.0,49,0.00,,,-99.99,,2013-04-25 16:02:00,
2013-04-25 12:13:00,49.0,30.0,-100.00,NNE,29,2.0,4.0,47,0.00,,,-99.99,,2013-04-25 16:13:00,
2013-04-25 12:24:00,49.0,30.0,-100.00,NNE,29,2.0,4.0,47,0.00,,,-99.99,,2013-04-25 16:24:00,
2013-04-25 12:33:00,51.0,30.0,-100.00,NNW,331,3.0,4.0,44,0.00,,,-99.99,,2013-04-25 16:33:00,
2013-04-25 12:43:00,49.0,32.0,-100.00,NE,45,2.0,4.0,49,0.00,,,-99.99,,2013-04-25 16:43:00,
2013-04-25 12:52:00,49.0,32.0,-100.00,NE,45,2.0,4.0,49,0.00,,,-99.99,,2013-04-25 16:52:00,
2013-04-25 13:02:00,49.0,32.0,-100.00,NE,45,2.0,4.0,49,0.00,,,-99.99,,2013-04-25 17:02:00,
2013-04-25 13:11:00,53.0,32.0,-100.00,NNE,12,2.0,6.0,44,0.00,,,-99.99,,2013-04-25 17:11:00,
2013-04-25 13:22:00,54.0,32.0,-100.00,ESE,103,2.0,6.0,44,0.00,,,-99.99,,2013-04-25 17:22:00,
2013-04-25 13:32:00,54.0,32.0,-100.00,ESE,103,2.0,6.0,44,0.00,,,-99.99,,2013-04-25 17:32:00,
2013-04-25 13:42:00,54.0,32.0,-100.00,NNE,22,2.0,6.0,42,0.00,,,-99.99,,2013-04-25 17:42:00,
2013-04-25 13:53:00,55.0,30.0,-100.00,North,354,2.0,6.0,37,0.00,,,-99.99,,2013-04-25 17:53:00,
2013-04-25 14:01:00,55.0,30.0,-100.00,North,354,2.0,6.0,37,0.00,,,-99.99,,2013-04-25 18:01:00,
2013-04-25 14:11:00,55.0,30.0,-100.00,North,354,2.0,6.0,37,0.00,,,-99.99,,2013-04-25 18:11:00,
2013-04-25 14:22:00,55.0,30.0,-100.00,North,354,2.0,6.0,37,0.00,,,-99.99,,2013-04-25 18:22:00,
2013-04-25 14:32:00,53.0,28.0,-100.00,WNW,296,2.0,6.0,38,0.00,,,-99.99,,2013-04-25 18:32:00,
2013-04-25 14:43:00,54.0,30.0,-100.00,NW,310,2.0,6.0,40,0.00,,,-99.99,,2013-04-25 18:43:00,
2013-04-25 14:53:00,56.0,28.0,-100.00,NE,46,2.0,6.0,33,0.00,,,-99.99,,2013-04-25 18:53:00,
2013-04-25 15:02:00,56.0,28.0,-100.00,NE,46,2.0,6.0,33,0.00,,,-99.99,,2013-04-25 19:02:00,
2013-04-25 15:12:00,56.0,28.0,-100.00,NE,46,2.0,6.0,33,0.00,,,-99.99,,2013-04-25 19:12:00,
2013-04-25 15:21:00,54.0,28.0,-100.00,North,8,2.0,6.0,36,0.00,,,-99.99,,2013-04-25 19:21:00,
2013-04-25 15:32:00,54.0,30.0,-100.00,NE,38,4.0,6.0,38,0.00,,,-99.99,,2013-04-25 19:32:00,
2013-04-25 15:42:00,52.0,30.0,-100.00,East,98,3.0,6.0,42,0.00,,,-99.99,,2013-04-25 19:42:00,
2013-04-25 15:52:00,53.0,32.0,-100.00,NE,49,4.0,6.0,46,0.00,,,-99.99,,2013-04-25 19:52:00,
2013-04-25 16:02:00,53.0,32.0,-100.00,NE,49,4.0,6.0,46,0.00,,,-99.99,,2013-04-25 20:02:00,
2013-04-25 16:11:00,48.0,34.0,-100.00,NE,36,4.0,6.0,59,6.22,,,-99.99,,2013-04-25 20:11:00,
2013-04-25 16:22:00,48.0,34.0,-100.00,NE,36,4.0,6.0,59,6.22,,,-99.99,,2013-04-25 20:22:00,
2013-04-25 16:32:00,48.0,34.0,-100.00,NE,36,4.0,6.0,59,6.22,,,-99.99,,2013-04-25 20:32:00,
2013-04-25 16:42:00,51.0,34.0,-100.00,ENE,67,2.0,6.0,55,0.00,,,-99.99,,2013-04-25 20:42:00,
2013-04-25 16:52:00,50.0,34.0,-100.00,ENE,67,1.0,6.0,55,0.00,,,-99.99,,2013-04-25 20:52:00,
2013-04-25 17:01:00,52.0,36.0,-100.00,East,96,1.0,6.0,55,2.83,,,-99.99,,2013-04-25 21:01:00,
2013-04-25 17:11:00,49.0,36.0,-100.00,ENE,76,1.0,6.0,60,0.00,,,-99.99,,2013-04-25 21:11:00,
2013-04-25 17:22:00,50.0,36.0,-100.00,North,4,1.0,6.0,62,0.00,,,-99.99,,2013-04-25 21:22:00,
2013-04-25 17:33:00,50.0,36.0,-100.00,North,4,1.0,6.0,62,0.00,,,-99.99,,2013-04-25 21:33:00,
2013-04-25 17:42:00,49.0,37.0,-100.00,North,360,1.0,6.0,64,1.14,,,-99.99,,2013-04-25 21:42:00,
2013-04-25 17:52:00,46.0,37.0,-100.00,NE,50,3.0,6.0,76,-99.99,,,-99.99,,2013-04-25 21:52:00,
2013-04-25 18:03:00,46.0,39.0,-100.00,NNE,19,1.0,6.0,81,0.00,,,-99.99,,2013-04-25 22:03:00,
2013-04-25 18:12:00,45.0,39.0,-100.00,North,8,1.0,6.0,84,0.00,,,-99.99,,2013-04-25 22:12:00,
2013-04-25 18:22:00,45.0,39.0,-100.00,North,8,1.0,6.0,84,0.00,,,-99.99,,2013-04-25 22:22:00,
2013-04-25 18:33:00,45.0,39.0,-100.00,North,8,1.0,6.0,84,0.00,,,-99.99,,2013-04-25 22:33:00,
2013-04-25 18:42:00,45.0,39.0,-100.00,ENE,77,0.0,6.0,81,0.00,,,-99.99,,2013-04-25 22:42:00,
2013-04-25 18:52:00,43.0,37.0,-100.00,NNE,19,2.0,6.0,85,-99.99,,,-99.99,,2013-04-25 22:52:00,
2013-04-25 19:02:00,43.0,37.0,-100.00,NNE,19,2.0,6.0,85,-99.99,,,-99.99,,2013-04-25 23:02:00,
2013-04-25 19:12:00,44.0,39.0,-100.00,NNE,25,0.0,6.0,86,0.00,,,-99.99,,2013-04-25 23:12:00,
2013-04-25 19:22:00,44.0,39.0,-100.00,NE,36,0.0,6.0,85,0.00,,,-99.99,,2013-04-25 23:22:00,
2013-04-25 19:32:00,44.0,39.0,-100.00,NE,36,0.0,6.0,85,0.00,,,-99.99,,2013-04-25 23:32:00,
2013-04-25 19:42:00,45.0,39.0,-100.00,East,88,0.0,6.0,85,0.00,,,-99.99,,2013-04-25 23:42:00,
2013-04-25 19:52:00,45.0,39.0,-100.00,East,88,0.0,6.0,85,0.00,,,-99.99,,2013-04-25 23:52:00,
2013-04-25 20:01:00,44.0,37.0,-100.00,NE,38,0.0,6.0,82,0.00,,,-99.99,,2013-04-26 00:01:00,
2013-04-25 20:11:00,44.0,37.0,-100.00,ENE,69,0.0,6.0,81,0.00,,,-99.99,,2013-04-26 00:11:00,
2013-04-25 20:22:00,44.0,37.0,-100.00,ENE,69,0.0,6.0,81,0.00,,,-99.99,,2013-04-26 00:22:00,
2013-04-25 20:32:00,43.0,36.0,-100.00,North,1,0.0,6.0,77,0.00,,,-99.99,,2013-04-26 00:32:00,
2013-04-25 20:42:00,43.0,36.0,-100.00,NNE,29,0.0,6.0,76,0.00,,,-99.99,,2013-04-26 00:42:00,
2013-04-25 20:51:00,43.0,36.0,-100.00,NNE,29,0.0,6.0,76,0.00,,,-99.99,,2013-04-26 00:51:00,
2013-04-25 21:01:00,42.0,34.0,-100.00,NNE,22,0.0,6.0,77,0.00,,,-99.99,,2013-04-26 01:01:00,
2013-04-25 21:11:00,42.0,34.0,-100.00,NNW,348,0.0,6.0,78,0.00,,,-99.99,,2013-04-26 01:11:00,
2013-04-25 21:21:00,42.0,34.0,-100.00,NNW,348,0.0,6.0,78,0.00,,,-99.99,,2013-04-26 01:21:00,
2013-04-25 21:32:00,41.0,34.0,-100.00,North,0,0.0,6.0,81,0.00,,,-99.99,,2013-04-26 01:32:00,
2013-04-25 21:42:00,41.0,34.0,-100.00,NW,323,0.0,6.0,82,0.00,,,-99.99,,2013-04-26 01:42:00,
2013-04-25 21:52:00,40.0,34.0,-100.00,WNW,297,0.0,6.0,84,0.00,,,-99.99,,2013-04-26 01:52:00,
2013-04-25 22:02:00,39.0,34.0,-100.00,WNW,296,0.0,6.0,85,0.00,,,-99.99,,2013-04-26 02:02:00,
2013-04-25 22:12:00,39.0,34.0,-100.00,NW,317,0.0,6.0,86,0.00,,,-99.99,,2013-04-26 02:12:00,
2013-04-25 22:21:00,39.0,34.0,-100.00,NW,317,0.0,6.0,86,0.00,,,-99.99,,2013-04-26 02:21:00,
2013-04-25 22:32:00,38.0,34.0,-100.00,NNW,348,0.0,6.0,88,0.00,,,-99.99,,2013-04-26 02:32:00,
2013-04-25 22:42:00,36.0,32.0,-100.00,NNW,347,0.0,6.0,89,0.00,,,-99.99,,2013-04-26 02:42:00,
2013-04-25 22:52:00,38.0,34.0,-100.00,NW,323,0.0,6.0,89,0.00,,,-99.99,,2013-04-26 02:52:00,
2013-04-25 23:01:00,37.0,34.0,-100.00,WNW,300,0.0,6.0,89,0.00,,,-99.99,,2013-04-26 03:01:00,
2013-04-25 23:11:00,37.0,34.0,-100.00,NNW,341,0.0,6.0,90,0.00,,,-99.99,,2013-04-26 03:11:00,
2013-04-25 23:22:00,36.0,32.0,-100.00,NNW,341,0.0,6.0,90,0.00,,,-99.99,,2013-04-26 03:22:00,
2013-04-25 23:33:00,36.0,32.0,-100.00,NNW,336,0.0,6.0,91,0.00,,,-99.99,,2013-04-26 03:33:00,
2013-04-25 23:43:00,36.0,32.0,-100.00,NNW,336,0.0,6.0,91,0.00,,,-99.99,,2013-04-26 03:43:00,
2013-04-25 23:53:00,36.0,32.0,-100.00,North,358,0.0,6.0,91,0.00,,,-99.99,,2013-04-26 03:53:00,